• Join FlightAware (Why Join?)
  • Login
  • US Flag 
10:31PM EDT


 

Airport Tracker/Info


-or-


 

Live Flight TrackerFlight Track Log ✈ AAL667 ✈ 28-Apr-2013 ✈ KDFW - KABQ

Flight Track Log - Related Links

Times and Time Zones

All times are in EDT time to prevent confusion due to time zone crossing. See the AAL667 flight status page for this flight to view local times or setup timezone preferences in your user account.

Time Position Orientation Groundspeed Altitude Reporting Facility
EDT Latitude Longitude Course Direction KTS MPH feet Rate Location/Type
11:41PM 32.8667 -97.0333 294° West 192 221 1,500  Level Dallas / Fort Worth TRACON
11:42PM 32.8000 -97.0667 203° Southwest 223 257 4,200 2,100 Climbing Dallas / Fort Worth TRACON
11:43PM 32.8005 -97.3094 298° West  Level FlightAware Approximate
11:43PM 32.7667 -97.1167 232° Southwest 271 312 6,400  Level Dallas / Fort Worth TRACON
11:44PM 32.8509 -97.4316 293° West  Level FlightAware Approximate
11:45PM 32.8964 -97.5568 293° West  Level FlightAware Approximate
11:45PM 32.7831 -97.2725 277° West 379 436 10,600  Level Fort Worth Center
11:46PM 32.9464 -97.6793 294° West  Level FlightAware Approximate
11:46PM 32.8208 -97.3614 297° West 329 379 11,800  Level Fort Worth Center
11:47PM 32.8708 -97.4753 298° West 341 392 14,100 1,980 Climbing Fort Worth Center
11:48PM 32.9125 -97.5792 296° West 372 428 15,800 1,920 Climbing Fort Worth Center
11:49PM 32.9625 -97.6981 297° West 394 453 18,000 2,040 Climbing Fort Worth Center
11:50PM 33.0183 -97.8322 296° West 404 465 19,900 1,860 Climbing Fort Worth Center
11:51PM 33.0639 -97.9464 295° West 409 471 21,800 1,740 Climbing Fort Worth Center
11:52PM 33.1217 -98.0856 296° West 419 482 23,400 1,560 Climbing Fort Worth Center
11:53PM 33.1814 -98.2250 297° West 444 511 25,000 1,560 Climbing Fort Worth Center
11:54PM 33.2347 -98.3597 295° West 444 511 26,600 1,620 Climbing Fort Worth Center
11:55PM 33.2858 -98.4869 296° West 444 511 28,300 1,380 Climbing Fort Worth Center
11:56PM 33.3411 -98.6219 296° West 439 505 29,400 1,200 Climbing Fort Worth Center
11:57PM 33.3897 -98.7519 294° West 444 511 30,700 1,200 Climbing Fort Worth Center
11:58PM 33.4386 -98.8747 296° West 444 511 31,800 600 Climbing Fort Worth Center
11:59PM 33.4786 -99.0147 289° West 444 511 32,000 60 Climbing Fort Worth Center
12:00AM 33.5100 -99.1572 285° West 444 511 32,000  Level Fort Worth Center
12:01AM 33.5456 -99.3000 287° West 444 511 32,000  Level Fort Worth Center
12:02AM 33.5767 -99.4381 285° West 439 505 32,000  Level Fort Worth Center
12:03AM 33.6119 -99.5758 287° West 439 505 32,000  Level Fort Worth Center
12:04AM 33.6450 -99.7189 286° West 439 505 32,000  Level Fort Worth Center
12:05AM 33.6778 -99.8597 286° West 439 505 32,000  Level Fort Worth Center
12:06AM 33.7125 -100.0053 286° West 439 505 32,000  Level Fort Worth Center
12:07AM 33.7469 -100.1489 286° West 439 505 32,000  Level Fort Worth Center
12:08AM 33.7792 -100.2922 285° West 439 505 32,000  Level Fort Worth Center
12:09AM 33.8111 -100.4358 285° West 444 511 32,000  Level Fort Worth Center
12:10AM 33.8433 -100.5769 285° West 450 518 32,000  Level Fort Worth Center
12:11AM 33.8769 -100.7233 285° West 450 518 32,000  Level Fort Worth Center
12:12AM 33.9108 -100.8647 286° West 444 511 32,000  Level Fort Worth Center
12:13AM 33.9436 -101.0261 284° West 444 511 32,000 240 Level Fort Worth Center
12:14AM 33.9750 -101.1678 285° West 444 511 32,500 600 Climbing Fort Worth Center
12:15AM 34.0081 -101.3144 285° West 444 511 33,200 720 Climbing Fort Worth Center
12:16AM 34.0392 -101.4561 285° West 439 505 34,000 360 Climbing Fort Worth Center
12:17AM 34.0719 -101.5956 286° West 439 505 34,000  Level Fort Worth Center
12:18AM 34.1025 -101.7425 284° West 439 505 34,000  Level Fort Worth Center
12:19AM 34.1331 -101.8844 285° West 442 509 34,000  Level Fort Worth Center
12:21AM 34.1906 -102.1597 284° West 443 510 34,000  Level Albuquerque Center
12:22AM 34.2192 -102.2956 284° West 444 511 34,000  Level Albuquerque Center
12:23AM 34.2503 -102.4439 284° West 450 518 34,000  Level Albuquerque Center
12:24AM 34.2811 -102.5894 284° West 448 516 34,000  Level Albuquerque Center
12:25AM 34.3175 -102.7650 284° West 447 514 34,000  Level Albuquerque Center
12:26AM 34.3469 -102.9100 284° West 446 513 34,000  Level Albuquerque Center
12:27AM 34.3747 -103.0444 284° West 445 512 34,000  Level Albuquerque Center
12:28AM 34.4039 -103.1889 284° West 440 506 34,000  Level Albuquerque Center
12:29AM 34.4339 -103.3350 284° West 442 509 34,000  Level Albuquerque Center
12:30AM 34.4639 -103.4806 284° West 441 507 34,000  Level Albuquerque Center
12:31AM 34.4922 -103.6267 283° West 442 509 34,000  Level Albuquerque Center
12:32AM 34.5203 -103.7722 283° West 440 506 34,000  Level Albuquerque Center
12:33AM 34.5486 -103.9172 283° West 438 504 34,000  Level Albuquerque Center
12:34AM 34.5767 -104.0633 283° West 438 504 34,000  Level Albuquerque Center
12:35AM 34.6058 -104.2108 284° West 442 509 34,000  Level Albuquerque Center
12:36AM 34.6336 -104.3567 283° West 439 505 34,000  Level Albuquerque Center
12:37AM 34.6614 -104.5033 283° West 441 507 34,000  Level Albuquerque Center
12:38AM 34.6903 -104.6497 284° West 440 506 34,000  Level Albuquerque Center
12:39AM 34.7172 -104.7969 283° West 441 507 34,000 -180 Level Albuquerque Center
12:40AM 34.7444 -104.9425 283° West 438 504 33,700 -1,440 Descending Albuquerque Center
12:41AM 34.7719 -105.0894 283° West 440 506 31,200 -2,460 Descending Albuquerque Center
12:42AM 34.8000 -105.2369 283° West 442 509 28,700 -2,640 Descending Albuquerque Center
12:43AM 34.8286 -105.3886 283° West 452 520 25,900 -2,580 Descending Albuquerque Center
12:44AM 34.8544 -105.5389 282° West 451 519 23,600 -2,280 Descending Albuquerque Center
12:45AM 34.8822 -105.6850 283° West 442 509 21,300 -2,340 Descending Albuquerque Center
12:46AM 34.9025 -105.8122 281° West 425 489 19,200 -2,400 Descending Albuquerque Center
12:47AM 34.9231 -105.9261 282° West 411 473 17,300 -2,040 Descending Albuquerque Center
12:47AM 34.9281 -105.9475 286° West 415 478 16,900 -1,920 Descending Albuquerque Center
12:48AM 34.9336 -106.0556 274° West 380 437 15,400 -1,920 Descending Albuquerque Center
12:48AM 34.9411 -106.0756 295° West 392 451 15,000 -2,040 Descending Albuquerque Center
12:49AM 34.9361 -106.1769 267° West 352 405 13,400 -1,920 Descending Albuquerque Center
12:49AM 34.9378 -106.1942 277° West 357 411 13,100 -1,920 Descending Albuquerque Center
12:50AM 34.9392 -106.2900 271° West 335 386 11,500 -1,920 Descending Albuquerque Center
12:50AM 34.9400 -106.3092 273° West 344 396 11,200 -1,500 Descending Albuquerque Center
12:51AM 34.9306 -106.3986 263° West 317 365 10,000 -1,500 Descending Albuquerque Center
12:51AM 34.9222 -106.4344 254° West 320 368 9,700 -1,140 Descending Albuquerque Center
12:52AM 34.9122 -106.4992 259° West 263 303 8,900 -1,140 Descending Albuquerque Center
12:52AM 34.9069 -106.5239 255° West 292 336 8,600 -1,200 Descending Albuquerque Center
12:53AM 34.9106 -106.5747 275° West 202 232 7,700 -1,200 Descending Albuquerque Center
12:53AM 34.9167 -106.5936 292° West 242 278 7,400 -600 Descending Albuquerque Center
12:54AM 34.9364 -106.6381 298° West 198 228 7,100 -540 Descending Albuquerque Center
12:54AM 34.9442 -106.6556 298° West 218 251 6,900 -660 Descending Albuquerque Center
12:55AM 34.9758 -106.6797 328° Northwest 161 185 6,400 -780 Descending Albuquerque Center
12:56AM 35.0081 -106.6456 41° Northeast 155 178 5,600 -840 Descending Albuquerque Center